sensor_id;sensor_type;location;lat;lon;timestamp;P1;durP1;ratioP1;P2;durP2;ratioP2
21254;SDS011;10785;50.674;17.954;2023-04-30T00:07:07;3.08;;;2.80;;
21254;SDS011;10785;50.674;17.954;2023-04-30T00:09:35;6.43;;;4.95;;
21254;SDS011;10785;50.674;17.954;2023-04-30T00:12:04;4.22;;;3.83;;
21254;SDS011;10785;50.674;17.954;2023-04-30T00:14:33;4.07;;;3.72;;
21254;SDS011;10785;50.674;17.954;2023-04-30T00:17:02;7.50;;;4.38;;
21254;SDS011;10785;50.674;17.954;2023-04-30T00:19:30;7.07;;;5.35;;
21254;SDS011;10785;50.674;17.954;2023-04-30T00:21:59;4.68;;;4.20;;
21254;SDS011;10785;50.674;17.954;2023-04-30T00:24:29;4.82;;;3.17;;
21254;SDS011;10785;50.674;17.954;2023-04-30T00:26:58;10.63;;;5.32;;
21254;SDS011;10785;50.674;17.954;2023-04-30T00:29:27;5.18;;;3.55;;
21254;SDS011;10785;50.674;17.954;2023-04-30T00:31:55;3.05;;;2.70;;
21254;SDS011;10785;50.674;17.954;2023-04-30T00:34:24;5.22;;;3.90;;
21254;SDS011;10785;50.674;17.954;2023-04-30T00:36:53;3.63;;;3.42;;
21254;SDS011;10785;50.674;17.954;2023-04-30T00:39:21;10.77;;;3.17;;
21254;SDS011;10785;50.674;17.954;2023-04-30T00:41:51;2.65;;;2.47;;
21254;SDS011;10785;50.674;17.954;2023-04-30T00:44:21;5.97;;;3.25;;
21254;SDS011;10785;50.674;17.954;2023-04-30T00:46:49;6.72;;;4.53;;
21254;SDS011;10785;50.674;17.954;2023-04-30T00:49:18;4.07;;;3.00;;
21254;SDS011;10785;50.674;17.954;2023-04-30T00:51:46;3.15;;;2.88;;
21254;SDS011;10785;50.674;17.954;2023-04-30T00:54:15;6.00;;;3.95;;
21254;SDS011;10785;50.674;17.954;2023-04-30T00:56:44;2.60;;;2.40;;
21254;SDS011;10785;50.674;17.954;2023-04-30T00:59:14;3.60;;;2.08;;
21254;SDS011;10785;50.674;17.954;2023-04-30T01:01:44;3.10;;;2.65;;
21254;SDS011;10785;50.674;17.954;2023-04-30T01:04:13;4.50;;;4.10;;
21254;SDS011;10785;50.674;17.954;2023-04-30T01:06:41;3.55;;;3.30;;
21254;SDS011;10785;50.674;17.954;2023-04-30T01:09:10;2.05;;;1.90;;
21254;SDS011;10785;50.674;17.954;2023-04-30T01:11:42;2.00;;;1.88;;
21254;SDS011;10785;50.674;17.954;2023-04-30T01:14:19;3.25;;;2.97;;
21254;SDS011;10785;50.674;17.954;2023-04-30T01:16:59;3.50;;;2.50;;
21254;SDS011;10785;50.674;17.954;2023-04-30T01:19:37;3.95;;;3.15;;
21254;SDS011;10785;50.674;17.954;2023-04-30T01:22:10;34.33;;;3.88;;
21254;SDS011;10785;50.674;17.954;2023-04-30T01:24:48;2.75;;;2.38;;
21254;SDS011;10785;50.674;17.954;2023-04-30T01:27:47;3.00;;;2.67;;
21254;SDS011;10785;50.674;17.954;2023-04-30T01:30:30;7.95;;;2.35;;
21254;SDS011;10785;50.674;17.954;2023-04-30T01:33:00;10.32;;;3.90;;
21254;SDS011;10785;50.674;17.954;2023-04-30T01:35:44;3.88;;;3.00;;
21254;SDS011;10785;50.674;17.954;2023-04-30T01:38:40;7.72;;;1.83;;
21254;SDS011;10785;50.674;17.954;2023-04-30T01:41:25;6.63;;;4.75;;
21254;SDS011;10785;50.674;17.954;2023-04-30T01:44:05;4.57;;;2.58;;
21254;SDS011;10785;50.674;17.954;2023-04-30T01:46:45;6.45;;;2.88;;
21254;SDS011;10785;50.674;17.954;2023-04-30T01:49:24;3.50;;;3.03;;
21254;SDS011;10785;50.674;17.954;2023-04-30T01:51:59;6.00;;;3.00;;
21254;SDS011;10785;50.674;17.954;2023-04-30T01:54:37;5.18;;;3.20;;
21254;SDS011;10785;50.674;17.954;2023-04-30T01:57:12;2.25;;;2.08;;
21254;SDS011;10785;50.674;17.954;2023-04-30T01:59:46;3.45;;;2.60;;
21254;SDS011;10785;50.674;17.954;2023-04-30T02:02:15;6.60;;;2.65;;
21254;SDS011;10785;50.674;17.954;2023-04-30T02:04:45;9.95;;;3.20;;
21254;SDS011;10785;50.674;17.954;2023-04-30T02:07:16;9.43;;;2.33;;
21254;SDS011;10785;50.674;17.954;2023-04-30T02:09:54;4.25;;;2.13;;
21254;SDS011;10785;50.674;17.954;2023-04-30T02:12:23;9.07;;;4.40;;
21254;SDS011;10785;50.674;17.954;2023-04-30T02:27:45;5.13;;;3.05;;
21254;SDS011;10785;50.674;17.954;2023-04-30T02:30:13;3.50;;;2.15;;
21254;SDS011;10785;50.674;17.954;2023-04-30T02:32:42;3.60;;;3.28;;
21254;SDS011;10785;50.674;17.954;2023-04-30T02:35:10;1.83;;;1.73;;
21254;SDS011;10785;50.674;17.954;2023-04-30T02:37:39;2.40;;;2.25;;
21254;SDS011;10785;50.674;17.954;2023-04-30T02:40:08;5.97;;;3.45;;
21254;SDS011;10785;50.674;17.954;2023-04-30T02:42:37;2.22;;;2.13;;
21254;SDS011;10785;50.674;17.954;2023-04-30T02:45:08;3.88;;;2.50;;
21254;SDS011;10785;50.674;17.954;2023-04-30T02:47:36;6.47;;;2.47;;
21254;SDS011;10785;50.674;17.954;2023-04-30T02:50:05;10.85;;;2.80;;
21254;SDS011;10785;50.674;17.954;2023-04-30T02:52:35;2.53;;;2.38;;
21254;SDS011;10785;50.674;17.954;2023-04-30T02:55:04;2.60;;;2.08;;
21254;SDS011;10785;50.674;17.954;2023-04-30T02:57:33;3.13;;;2.92;;
21254;SDS011;10785;50.674;17.954;2023-04-30T03:00:02;5.57;;;2.88;;
21254;SDS011;10785;50.674;17.954;2023-04-30T03:02:33;3.05;;;2.72;;
21254;SDS011;10785;50.674;17.954;2023-04-30T03:05:02;2.83;;;2.63;;
21254;SDS011;10785;50.674;17.954;2023-04-30T03:07:31;3.70;;;3.40;;
21254;SDS011;10785;50.674;17.954;2023-04-30T03:10:00;5.75;;;3.85;;
21254;SDS011;10785;50.674;17.954;2023-04-30T03:12:29;2.30;;;2.20;;
21254;SDS011;10785;50.674;17.954;2023-04-30T03:14:58;2.53;;;2.33;;
21254;SDS011;10785;50.674;17.954;2023-04-30T03:17:27;3.28;;;2.47;;
21254;SDS011;10785;50.674;17.954;2023-04-30T03:19:57;4.28;;;3.90;;
21254;SDS011;10785;50.674;17.954;2023-04-30T03:22:25;1.45;;;1.40;;
21254;SDS011;10785;50.674;17.954;2023-04-30T04:09:56;1.88;;;1.77;;
21254;SDS011;10785;50.674;17.954;2023-04-30T04:12:26;2.03;;;1.92;;
21254;SDS011;10785;50.674;17.954;2023-04-30T04:14:54;2.22;;;2.08;;
21254;SDS011;10785;50.674;17.954;2023-04-30T04:17:24;4.68;;;2.72;;
21254;SDS011;10785;50.674;17.954;2023-04-30T04:19:53;3.58;;;3.20;;
21254;SDS011;10785;50.674;17.954;2023-04-30T04:25:20;2.53;;;2.15;;
21254;SDS011;10785;50.674;17.954;2023-04-30T04:27:51;18.95;;;4.43;;
21254;SDS011;10785;50.674;17.954;2023-04-30T04:30:19;1.80;;;1.70;;
21254;SDS011;10785;50.674;17.954;2023-04-30T04:32:49;2.40;;;2.20;;
21254;SDS011;10785;50.674;17.954;2023-04-30T04:35:20;3.78;;;3.15;;
21254;SDS011;10785;50.674;17.954;2023-04-30T04:37:49;2.63;;;2.08;;
21254;SDS011;10785;50.674;17.954;2023-04-30T04:40:17;2.15;;;1.80;;
21254;SDS011;10785;50.674;17.954;2023-04-30T04:42:49;2.42;;;2.28;;
21254;SDS011;10785;50.674;17.954;2023-04-30T04:45:18;3.35;;;3.00;;
21254;SDS011;10785;50.674;17.954;2023-04-30T04:47:48;2.38;;;1.92;;
21254;SDS011;10785;50.674;17.954;2023-04-30T04:50:17;10.77;;;3.67;;
21254;SDS011;10785;50.674;17.954;2023-04-30T04:52:47;3.15;;;2.90;;
21254;SDS011;10785;50.674;17.954;2023-04-30T04:55:16;4.25;;;2.90;;
21254;SDS011;10785;50.674;17.954;2023-04-30T05:07:19;4.53;;;3.65;;
21254;SDS011;10785;50.674;17.954;2023-04-30T05:09:48;2.75;;;2.50;;
21254;SDS011;10785;50.674;17.954;2023-04-30T05:12:16;2.47;;;2.28;;
21254;SDS011;10785;50.674;17.954;2023-04-30T05:14:45;2.53;;;2.33;;
21254;SDS011;10785;50.674;17.954;2023-04-30T05:17:15;3.00;;;2.33;;
21254;SDS011;10785;50.674;17.954;2023-04-30T05:19:43;4.18;;;3.72;;
21254;SDS011;10785;50.674;17.954;2023-04-30T05:22:13;4.93;;;2.60;;
21254;SDS011;10785;50.674;17.954;2023-04-30T05:24:43;8.38;;;3.08;;
21254;SDS011;10785;50.674;17.954;2023-04-30T05:27:11;5.13;;;2.00;;
21254;SDS011;10785;50.674;17.954;2023-04-30T05:29:40;7.00;;;2.22;;
21254;SDS011;10785;50.674;17.954;2023-04-30T05:32:09;2.58;;;2.03;;
21254;SDS011;10785;50.674;17.954;2023-04-30T05:34:37;22.48;;;3.03;;
21254;SDS011;10785;50.674;17.954;2023-04-30T05:37:06;2.78;;;2.58;;
21254;SDS011;10785;50.674;17.954;2023-04-30T05:39:34;4.10;;;2.65;;
21254;SDS011;10785;50.674;17.954;2023-04-30T05:42:04;3.88;;;2.95;;
21254;SDS011;10785;50.674;17.954;2023-04-30T05:44:33;6.80;;;2.38;;
21254;SDS011;10785;50.674;17.954;2023-04-30T05:47:02;2.25;;;1.88;;
21254;SDS011;10785;50.674;17.954;2023-04-30T05:49:30;2.85;;;2.15;;
21254;SDS011;10785;50.674;17.954;2023-04-30T05:52:02;2.90;;;2.13;;
21254;SDS011;10785;50.674;17.954;2023-04-30T05:54:31;3.00;;;1.42;;
21254;SDS011;10785;50.674;17.954;2023-04-30T05:56:59;3.17;;;2.53;;
21254;SDS011;10785;50.674;17.954;2023-04-30T05:59:29;4.75;;;3.20;;
21254;SDS011;10785;50.674;17.954;2023-04-30T06:01:58;2.83;;;1.85;;
21254;SDS011;10785;50.674;17.954;2023-04-30T06:04:27;5.65;;;2.30;;
21254;SDS011;10785;50.674;17.954;2023-04-30T06:06:55;4.57;;;3.05;;
21254;SDS011;10785;50.674;17.954;2023-04-30T06:09:24;2.65;;;1.75;;
21254;SDS011;10785;50.674;17.954;2023-04-30T06:11:52;2.85;;;2.35;;
21254;SDS011;10785;50.674;17.954;2023-04-30T06:14:21;3.22;;;2.58;;
21254;SDS011;10785;50.674;17.954;2023-04-30T06:16:52;4.00;;;2.85;;
21254;SDS011;10785;50.674;17.954;2023-04-30T06:19:20;8.07;;;3.00;;
21254;SDS011;10785;50.674;17.954;2023-04-30T06:21:49;2.10;;;1.83;;
21254;SDS011;10785;50.674;17.954;2023-04-30T06:24:18;1.58;;;1.48;;
21254;SDS011;10785;50.674;17.954;2023-04-30T06:26:46;2.88;;;1.80;;
21254;SDS011;10785;50.674;17.954;2023-04-30T06:29:15;3.15;;;1.70;;
21254;SDS011;10785;50.674;17.954;2023-04-30T06:31:43;2.92;;;2.20;;
21254;SDS011;10785;50.674;17.954;2023-04-30T06:34:13;1.85;;;1.05;;
21254;SDS011;10785;50.674;17.954;2023-04-30T06:36:42;2.80;;;2.13;;
21254;SDS011;10785;50.674;17.954;2023-04-30T06:39:13;2.17;;;1.48;;
21254;SDS011;10785;50.674;17.954;2023-04-30T06:41:42;5.82;;;1.77;;
21254;SDS011;10785;50.674;17.954;2023-04-30T06:44:14;5.63;;;1.60;;
21254;SDS011;10785;50.674;17.954;2023-04-30T06:46:43;2.10;;;1.50;;
21254;SDS011;10785;50.674;17.954;2023-04-30T06:49:13;5.90;;;3.17;;
21254;SDS011;10785;50.674;17.954;2023-04-30T06:51:42;2.95;;;2.33;;
21254;SDS011;10785;50.674;17.954;2023-04-30T06:54:11;4.30;;;2.40;;
21254;SDS011;10785;50.674;17.954;2023-04-30T06:56:40;1.10;;;0.90;;
21254;SDS011;10785;50.674;17.954;2023-04-30T06:59:09;3.63;;;3.08;;
21254;SDS011;10785;50.674;17.954;2023-04-30T07:01:38;1.58;;;1.48;;
21254;SDS011;10785;50.674;17.954;2023-04-30T07:04:07;7.28;;;2.38;;
21254;SDS011;10785;50.674;17.954;2023-04-30T07:06:37;2.33;;;1.55;;
21254;SDS011;10785;50.674;17.954;2023-04-30T07:09:05;2.15;;;1.73;;
21254;SDS011;10785;50.674;17.954;2023-04-30T07:11:34;1.45;;;1.35;;
21254;SDS011;10785;50.674;17.954;2023-04-30T07:14:03;9.35;;;2.50;;
21254;SDS011;10785;50.674;17.954;2023-04-30T07:16:31;2.33;;;2.08;;
21254;SDS011;10785;50.674;17.954;2023-04-30T07:19:00;2.15;;;1.65;;
21254;SDS011;10785;50.674;17.954;2023-04-30T07:21:29;3.13;;;2.20;;
21254;SDS011;10785;50.674;17.954;2023-04-30T07:23:59;1.63;;;1.52;;
21254;SDS011;10785;50.674;17.954;2023-04-30T07:26:28;1.40;;;1.25;;
21254;SDS011;10785;50.674;17.954;2023-04-30T07:28:56;1.52;;;1.42;;
21254;SDS011;10785;50.674;17.954;2023-04-30T07:31:25;1.10;;;1.10;;
21254;SDS011;10785;50.674;17.954;2023-04-30T07:33:54;5.50;;;2.13;;
21254;SDS011;10785;50.674;17.954;2023-04-30T07:36:23;1.27;;;1.25;;
21254;SDS011;10785;50.674;17.954;2023-04-30T07:38:53;1.30;;;1.20;;
21254;SDS011;10785;50.674;17.954;2023-04-30T07:44:35;1.88;;;0.98;;
21254;SDS011;10785;50.674;17.954;2023-04-30T07:47:03;1.48;;;1.38;;
21254;SDS011;10785;50.674;17.954;2023-04-30T07:49:32;1.17;;;1.13;;
21254;SDS011;10785;50.674;17.954;2023-04-30T07:52:01;1.85;;;1.42;;
21254;SDS011;10785;50.674;17.954;2023-04-30T07:54:29;0.60;;;0.60;;
21254;SDS011;10785;50.674;17.954;2023-04-30T07:56:58;2.88;;;1.45;;
21254;SDS011;10785;50.674;17.954;2023-04-30T07:59:26;1.45;;;1.35;;
21254;SDS011;10785;50.674;17.954;2023-04-30T08:01:56;1.60;;;1.50;;
21254;SDS011;10785;50.674;17.954;2023-04-30T08:04:26;4.80;;;1.55;;
21254;SDS011;10785;50.674;17.954;2023-04-30T08:06:54;0.82;;;0.82;;
21254;SDS011;10785;50.674;17.954;2023-04-30T08:09:23;2.83;;;2.00;;
21254;SDS011;10785;50.674;17.954;2023-04-30T08:11:52;3.63;;;1.25;;
21254;SDS011;10785;50.674;17.954;2023-04-30T08:14:20;1.63;;;1.52;;
21254;SDS011;10785;50.674;17.954;2023-04-30T08:16:49;1.45;;;1.25;;
21254;SDS011;10785;50.674;17.954;2023-04-30T08:19:19;2.97;;;1.55;;
21254;SDS011;10785;50.674;17.954;2023-04-30T08:21:47;1.60;;;1.42;;
21254;SDS011;10785;50.674;17.954;2023-04-30T08:24:16;2.33;;;2.05;;
21254;SDS011;10785;50.674;17.954;2023-04-30T08:26:44;2.47;;;1.55;;
21254;SDS011;10785;50.674;17.954;2023-04-30T08:29:13;1.58;;;1.48;;
21254;SDS011;10785;50.674;17.954;2023-04-30T08:31:42;1.13;;;0.73;;
21254;SDS011;10785;50.674;17.954;2023-04-30T08:34:10;1.23;;;1.15;;
21254;SDS011;10785;50.674;17.954;2023-04-30T08:36:40;1.80;;;1.70;;
21254;SDS011;10785;50.674;17.954;2023-04-30T08:39:09;1.60;;;1.50;;
21254;SDS011;10785;50.674;17.954;2023-04-30T08:41:38;6.13;;;1.92;;
21254;SDS011;10785;50.674;17.954;2023-04-30T08:44:09;0.98;;;0.98;;
21254;SDS011;10785;50.674;17.954;2023-04-30T08:46:39;1.77;;;1.08;;
21254;SDS011;10785;50.674;17.954;2023-04-30T08:49:10;1.75;;;1.65;;
21254;SDS011;10785;50.674;17.954;2023-04-30T08:51:39;1.55;;;1.45;;
21254;SDS011;10785;50.674;17.954;2023-04-30T08:54:09;0.63;;;0.63;;
21254;SDS011;10785;50.674;17.954;2023-04-30T09:03:06;1.83;;;1.67;;
21254;SDS011;10785;50.674;17.954;2023-04-30T09:05:35;1.42;;;1.25;;
21254;SDS011;10785;50.674;17.954;2023-04-30T09:08:05;1.23;;;1.23;;
21254;SDS011;10785;50.674;17.954;2023-04-30T09:10:35;1.40;;;1.25;;
21254;SDS011;10785;50.674;17.954;2023-04-30T09:13:04;0.65;;;0.60;;
21254;SDS011;10785;50.674;17.954;2023-04-30T09:15:35;0.95;;;0.82;;
21254;SDS011;10785;50.674;17.954;2023-04-30T09:18:08;3.15;;;2.03;;
21254;SDS011;10785;50.674;17.954;2023-04-30T09:20:52;2.28;;;1.25;;
21254;SDS011;10785;50.674;17.954;2023-04-30T09:23:23;1.05;;;1.05;;
21254;SDS011;10785;50.674;17.954;2023-04-30T09:25:52;1.63;;;1.52;;
21254;SDS011;10785;50.674;17.954;2023-04-30T09:28:21;1.25;;;1.25;;
21254;SDS011;10785;50.674;17.954;2023-04-30T09:30:52;0.80;;;0.80;;
21254;SDS011;10785;50.674;17.954;2023-04-30T09:33:22;2.58;;;1.52;;
21254;SDS011;10785;50.674;17.954;2023-04-30T09:35:51;1.60;;;1.42;;
21254;SDS011;10785;50.674;17.954;2023-04-30T09:38:28;2.10;;;1.25;;
21254;SDS011;10785;50.674;17.954;2023-04-30T09:40:58;2.15;;;2.00;;
21254;SDS011;10785;50.674;17.954;2023-04-30T09:43:28;0.82;;;0.82;;
21254;SDS011;10785;50.674;17.954;2023-04-30T09:45:58;2.58;;;1.27;;
21254;SDS011;10785;50.674;17.954;2023-04-30T09:48:27;0.88;;;0.85;;
21254;SDS011;10785;50.674;17.954;2023-04-30T09:50:55;0.73;;;0.73;;
21254;SDS011;10785;50.674;17.954;2023-04-30T09:53:24;1.70;;;1.60;;
21254;SDS011;10785;50.674;17.954;2023-04-30T09:55:55;1.48;;;1.38;;
21254;SDS011;10785;50.674;17.954;2023-04-30T09:58:29;5.85;;;1.70;;
21254;SDS011;10785;50.674;17.954;2023-04-30T10:01:02;0.95;;;0.85;;
21254;SDS011;10785;50.674;17.954;2023-04-30T10:03:33;0.98;;;0.98;;
21254;SDS011;10785;50.674;17.954;2023-04-30T10:06:03;1.10;;;1.10;;
21254;SDS011;10785;50.674;17.954;2023-04-30T10:08:32;1.17;;;1.10;;
21254;SDS011;10785;50.674;17.954;2023-04-30T10:11:11;1.73;;;1.08;;
21254;SDS011;10785;50.674;17.954;2023-04-30T10:13:44;0.93;;;0.93;;
21254;SDS011;10785;50.674;17.954;2023-04-30T10:16:21;1.33;;;1.00;;
21254;SDS011;10785;50.674;17.954;2023-04-30T10:18:56;0.93;;;0.73;;
21254;SDS011;10785;50.674;17.954;2023-04-30T10:21:30;6.30;;;1.85;;
21254;SDS011;10785;50.674;17.954;2023-04-30T11:28:54;0.95;;;0.95;;
21254;SDS011;10785;50.674;17.954;2023-04-30T11:31:31;1.10;;;0.90;;
21254;SDS011;10785;50.674;17.954;2023-04-30T11:34:00;5.68;;;1.05;;
21254;SDS011;10785;50.674;17.954;2023-04-30T11:36:30;1.55;;;0.85;;
21254;SDS011;10785;50.674;17.954;2023-04-30T11:38:59;0.85;;;0.85;;
21254;SDS011;10785;50.674;17.954;2023-04-30T11:41:33;1.23;;;0.82;;
21254;SDS011;10785;50.674;17.954;2023-04-30T11:44:22;5.20;;;2.30;;
21254;SDS011;10785;50.674;17.954;2023-04-30T11:46:52;0.50;;;0.50;;
21254;SDS011;10785;50.674;17.954;2023-04-30T11:49:21;1.20;;;1.17;;
21254;SDS011;10785;50.674;17.954;2023-04-30T11:51:50;0.75;;;0.75;;
21254;SDS011;10785;50.674;17.954;2023-04-30T11:54:19;1.52;;;1.42;;
21254;SDS011;10785;50.674;17.954;2023-04-30T11:56:47;1.05;;;1.00;;
21254;SDS011;10785;50.674;17.954;2023-04-30T11:59:16;1.25;;;1.00;;
21254;SDS011;10785;50.674;17.954;2023-04-30T12:01:47;0.73;;;0.73;;
21254;SDS011;10785;50.674;17.954;2023-04-30T12:04:15;0.70;;;0.70;;
21254;SDS011;10785;50.674;17.954;2023-04-30T12:06:44;1.00;;;1.00;;
21254;SDS011;10785;50.674;17.954;2023-04-30T12:09:13;2.40;;;1.20;;
21254;SDS011;10785;50.674;17.954;2023-04-30T12:11:42;0.88;;;0.88;;
21254;SDS011;10785;50.674;17.954;2023-04-30T12:14:10;0.50;;;0.50;;
21254;SDS011;10785;50.674;17.954;2023-04-30T12:16:41;2.88;;;1.00;;
21254;SDS011;10785;50.674;17.954;2023-04-30T12:19:17;0.47;;;0.47;;
21254;SDS011;10785;50.674;17.954;2023-04-30T12:21:47;3.85;;;0.80;;
21254;SDS011;10785;50.674;17.954;2023-04-30T12:24:17;0.68;;;0.68;;
21254;SDS011;10785;50.674;17.954;2023-04-30T12:26:46;2.40;;;0.70;;
21254;SDS011;10785;50.674;17.954;2023-04-30T12:29:15;0.63;;;0.63;;
21254;SDS011;10785;50.674;17.954;2023-04-30T12:31:47;0.65;;;0.65;;
21254;SDS011;10785;50.674;17.954;2023-04-30T12:34:18;1.52;;;1.38;;
21254;SDS011;10785;50.674;17.954;2023-04-30T12:36:46;0.57;;;0.57;;
21254;SDS011;10785;50.674;17.954;2023-04-30T12:39:15;1.70;;;0.80;;
21254;SDS011;10785;50.674;17.954;2023-04-30T12:41:44;0.90;;;0.57;;
21254;SDS011;10785;50.674;17.954;2023-04-30T12:44:15;2.40;;;0.90;;
21254;SDS011;10785;50.674;17.954;2023-04-30T12:46:44;15.55;;;0.93;;
21254;SDS011;10785;50.674;17.954;2023-04-30T12:49:24;1.40;;;1.30;;
21254;SDS011;10785;50.674;17.954;2023-04-30T12:51:58;0.90;;;0.90;;
21254;SDS011;10785;50.674;17.954;2023-04-30T12:54:28;0.60;;;0.60;;
21254;SDS011;10785;50.674;17.954;2023-04-30T12:56:59;0.70;;;0.70;;
21254;SDS011;10785;50.674;17.954;2023-04-30T12:59:30;0.85;;;0.85;;
21254;SDS011;10785;50.674;17.954;2023-04-30T13:02:07;0.63;;;0.63;;
21254;SDS011;10785;50.674;17.954;2023-04-30T13:04:38;0.43;;;0.43;;
21254;SDS011;10785;50.674;17.954;2023-04-30T13:07:07;0.77;;;0.77;;
21254;SDS011;10785;50.674;17.954;2023-04-30T13:09:36;0.60;;;0.60;;
21254;SDS011;10785;50.674;17.954;2023-04-30T13:12:05;0.50;;;0.50;;
21254;SDS011;10785;50.674;17.954;2023-04-30T13:14:33;0.70;;;0.70;;
21254;SDS011;10785;50.674;17.954;2023-04-30T13:17:03;2.80;;;0.70;;
21254;SDS011;10785;50.674;17.954;2023-04-30T13:19:33;1.85;;;1.33;;
21254;SDS011;10785;50.674;17.954;2023-04-30T13:22:02;0.47;;;0.47;;
21254;SDS011;10785;50.674;17.954;2023-04-30T13:24:31;5.43;;;0.75;;
21254;SDS011;10785;50.674;17.954;2023-04-30T13:27:00;1.02;;;0.93;;
21254;SDS011;10785;50.674;17.954;2023-04-30T13:29:29;1.70;;;1.60;;
21254;SDS011;10785;50.674;17.954;2023-04-30T13:31:58;0.65;;;0.63;;
21254;SDS011;10785;50.674;17.954;2023-04-30T13:34:27;0.45;;;0.45;;
21254;SDS011;10785;50.674;17.954;2023-04-30T13:36:56;1.05;;;1.00;;
21254;SDS011;10785;50.674;17.954;2023-04-30T13:39:25;1.77;;;0.90;;
21254;SDS011;10785;50.674;17.954;2023-04-30T13:41:54;0.60;;;0.60;;
21254;SDS011;10785;50.674;17.954;2023-04-30T13:44:22;0.60;;;0.60;;
21254;SDS011;10785;50.674;17.954;2023-04-30T13:46:51;0.60;;;0.60;;
21254;SDS011;10785;50.674;17.954;2023-04-30T13:49:21;0.60;;;0.60;;
21254;SDS011;10785;50.674;17.954;2023-04-30T13:51:50;1.42;;;0.90;;
21254;SDS011;10785;50.674;17.954;2023-04-30T13:54:18;0.50;;;0.50;;
21254;SDS011;10785;50.674;17.954;2023-04-30T13:56:48;0.82;;;0.77;;
21254;SDS011;10785;50.674;17.954;2023-04-30T13:59:17;5.15;;;1.50;;
21254;SDS011;10785;50.674;17.954;2023-04-30T14:01:46;0.50;;;0.50;;
21254;SDS011;10785;50.674;17.954;2023-04-30T14:04:16;1.75;;;0.93;;
21254;SDS011;10785;50.674;17.954;2023-04-30T14:06:47;0.30;;;0.30;;
21254;SDS011;10785;50.674;17.954;2023-04-30T14:09:16;0.82;;;0.75;;
21254;SDS011;10785;50.674;17.954;2023-04-30T14:11:45;11.50;;;1.25;;
21254;SDS011;10785;50.674;17.954;2023-04-30T14:14:15;1.00;;;0.88;;
21254;SDS011;10785;50.674;17.954;2023-04-30T14:16:43;1.45;;;0.75;;
21254;SDS011;10785;50.674;17.954;2023-04-30T14:19:12;0.50;;;0.50;;
21254;SDS011;10785;50.674;17.954;2023-04-30T14:21:42;1.20;;;0.60;;
21254;SDS011;10785;50.674;17.954;2023-04-30T14:24:10;0.40;;;0.40;;
21254;SDS011;10785;50.674;17.954;2023-04-30T14:26:39;1.95;;;0.93;;
21254;SDS011;10785;50.674;17.954;2023-04-30T14:29:07;1.15;;;0.82;;
21254;SDS011;10785;50.674;17.954;2023-04-30T14:31:38;1.08;;;0.90;;
21254;SDS011;10785;50.674;17.954;2023-04-30T14:34:06;0.50;;;0.50;;
21254;SDS011;10785;50.674;17.954;2023-04-30T14:36:35;2.00;;;1.27;;
21254;SDS011;10785;50.674;17.954;2023-04-30T14:39:04;3.40;;;1.27;;
21254;SDS011;10785;50.674;17.954;2023-04-30T14:41:33;0.90;;;0.85;;
21254;SDS011;10785;50.674;17.954;2023-04-30T14:44:03;0.90;;;0.75;;
21254;SDS011;10785;50.674;17.954;2023-04-30T14:46:32;0.88;;;0.88;;
21254;SDS011;10785;50.674;17.954;2023-04-30T14:49:02;1.05;;;0.88;;
21254;SDS011;10785;50.674;17.954;2023-04-30T14:51:31;0.60;;;0.60;;
21254;SDS011;10785;50.674;17.954;2023-04-30T14:53:59;10.82;;;1.40;;
21254;SDS011;10785;50.674;17.954;2023-04-30T14:56:29;1.95;;;0.80;;
21254;SDS011;10785;50.674;17.954;2023-04-30T14:58:57;0.73;;;0.68;;
21254;SDS011;10785;50.674;17.954;2023-04-30T15:01:26;0.68;;;0.57;;
21254;SDS011;10785;50.674;17.954;2023-04-30T15:03:56;0.40;;;0.40;;
21254;SDS011;10785;50.674;17.954;2023-04-30T15:06:26;0.60;;;0.60;;
21254;SDS011;10785;50.674;17.954;2023-04-30T15:08:54;1.20;;;1.02;;
21254;SDS011;10785;50.674;17.954;2023-04-30T15:11:23;0.73;;;0.73;;
21254;SDS011;10785;50.674;17.954;2023-04-30T15:13:52;0.55;;;0.55;;
21254;SDS011;10785;50.674;17.954;2023-04-30T15:16:21;0.88;;;0.88;;
21254;SDS011;10785;50.674;17.954;2023-04-30T15:18:50;0.40;;;0.40;;
21254;SDS011;10785;50.674;17.954;2023-04-30T15:21:18;3.53;;;1.63;;
21254;SDS011;10785;50.674;17.954;2023-04-30T15:23:48;2.65;;;1.13;;
21254;SDS011;10785;50.674;17.954;2023-04-30T15:26:17;1.00;;;0.90;;
21254;SDS011;10785;50.674;17.954;2023-04-30T15:28:46;0.93;;;0.93;;
21254;SDS011;10785;50.674;17.954;2023-04-30T15:31:14;2.65;;;1.05;;
21254;SDS011;10785;50.674;17.954;2023-04-30T15:33:43;1.23;;;0.90;;
21254;SDS011;10785;50.674;17.954;2023-04-30T15:36:12;3.45;;;1.55;;
21254;SDS011;10785;50.674;17.954;2023-04-30T15:38:40;0.38;;;0.38;;
21254;SDS011;10785;50.674;17.954;2023-04-30T15:41:10;0.52;;;0.52;;
21254;SDS011;10785;50.674;17.954;2023-04-30T15:43:39;1.17;;;1.08;;
21254;SDS011;10785;50.674;17.954;2023-04-30T15:46:07;0.40;;;0.40;;
21254;SDS011;10785;50.674;17.954;2023-04-30T15:48:36;1.27;;;0.70;;
21254;SDS011;10785;50.674;17.954;2023-04-30T15:51:04;0.82;;;0.82;;
21254;SDS011;10785;50.674;17.954;2023-04-30T15:53:33;1.80;;;0.82;;
21254;SDS011;10785;50.674;17.954;2023-04-30T15:56:02;1.58;;;0.50;;
21254;SDS011;10785;50.674;17.954;2023-04-30T15:58:32;1.15;;;0.98;;
21254;SDS011;10785;50.674;17.954;2023-04-30T16:01:01;0.80;;;0.80;;
21254;SDS011;10785;50.674;17.954;2023-04-30T16:03:29;0.88;;;0.82;;
21254;SDS011;10785;50.674;17.954;2023-04-30T16:05:58;0.80;;;0.80;;
21254;SDS011;10785;50.674;17.954;2023-04-30T16:08:28;1.80;;;1.70;;
21254;SDS011;10785;50.674;17.954;2023-04-30T16:10:58;2.63;;;1.65;;
21254;SDS011;10785;50.674;17.954;2023-04-30T16:13:27;0.70;;;0.68;;
21254;SDS011;10785;50.674;17.954;2023-04-30T16:15:57;8.90;;;1.65;;
21254;SDS011;10785;50.674;17.954;2023-04-30T16:18:25;1.00;;;0.88;;
21254;SDS011;10785;50.674;17.954;2023-04-30T16:20:55;0.57;;;0.57;;
21254;SDS011;10785;50.674;17.954;2023-04-30T16:23:24;0.55;;;0.55;;
21254;SDS011;10785;50.674;17.954;2023-04-30T16:25:52;1.20;;;1.05;;
21254;SDS011;10785;50.674;17.954;2023-04-30T16:28:22;0.98;;;0.88;;
21254;SDS011;10785;50.674;17.954;2023-04-30T16:30:54;1.38;;;1.00;;
21254;SDS011;10785;50.674;17.954;2023-04-30T16:33:24;0.50;;;0.50;;
21254;SDS011;10785;50.674;17.954;2023-04-30T16:35:52;0.75;;;0.75;;
21254;SDS011;10785;50.674;17.954;2023-04-30T16:38:21;0.77;;;0.77;;
21254;SDS011;10785;50.674;17.954;2023-04-30T16:40:49;1.00;;;1.00;;
21254;SDS011;10785;50.674;17.954;2023-04-30T16:43:18;3.20;;;2.13;;
21254;SDS011;10785;50.674;17.954;2023-04-30T16:45:47;0.85;;;0.85;;
21254;SDS011;10785;50.674;17.954;2023-04-30T16:48:16;0.63;;;0.63;;
21254;SDS011;10785;50.674;17.954;2023-04-30T16:50:46;1.23;;;1.13;;
21254;SDS011;10785;50.674;17.954;2023-04-30T16:53:14;1.08;;;0.98;;
21254;SDS011;10785;50.674;17.954;2023-04-30T16:55:43;1.98;;;1.50;;
21254;SDS011;10785;50.674;17.954;2023-04-30T16:58:12;1.35;;;0.88;;
21254;SDS011;10785;50.674;17.954;2023-04-30T17:00:40;1.15;;;0.85;;
21254;SDS011;10785;50.674;17.954;2023-04-30T17:03:09;2.70;;;0.98;;
21254;SDS011;10785;50.674;17.954;2023-04-30T17:05:38;7.43;;;1.25;;
21254;SDS011;10785;50.674;17.954;2023-04-30T17:08:08;0.80;;;0.80;;
21254;SDS011;10785;50.674;17.954;2023-04-30T17:10:37;1.48;;;1.25;;
21254;SDS011;10785;50.674;17.954;2023-04-30T17:13:06;0.60;;;0.60;;
21254;SDS011;10785;50.674;17.954;2023-04-30T17:15:34;0.50;;;0.50;;
21254;SDS011;10785;50.674;17.954;2023-04-30T17:18:03;0.50;;;0.50;;
21254;SDS011;10785;50.674;17.954;2023-04-30T17:20:32;1.25;;;0.80;;